DW7106 Weather Reports


Display with metric or nautical units.
time (UTC)temp
F
wind
direction
speed
MPH
gust
MPH
rain 1hr
in
rain 24hr
in
rain mn
in
humidity
%
barometer
mb
20200404002504 81 242 5.0 12.0 0.00 0.00 0.00 21 1006.3
20200404002004 81 244 5.0 12.0 0.00 0.00 0.00 20 1006.3
20200404001504 81 239 6.0 15.0 0.00 0.00 0.00 21 1006.3
20200404001004 81 236 6.0 15.0 0.00 0.00 0.00 21 1006.2
20200404000504 82 232 3.0 10.0 0.00 0.00 0.00 22 1006.3
20200404000005 82 239 3.0 9.0 0.00 0.00 0.00 22 1006.3
20200403235504 82 254 3.0 9.0 0.00 0.00 0.00 22 1006.4
20200403235004 82 252 2.0 9.0 0.00 0.00 0.00 22 1006.3
20200403234504 82 217 2.0 7.0 0.00 0.00 0.00 22 1006.4
20200403234004 82 211 2.0 9.0 0.00 0.00 0.00 22 1006.4
20200403233504 82 245 4.0 13.0 0.00 0.00 0.00 21 1006.5
20200403233005 82 234 4.0 13.0 0.00 0.00 0.00 21 1006.6
20200403232504 82 159 2.0 6.0 0.00 0.00 0.00 21 1006.6
20200403232004 82 155 3.0 8.0 0.00 0.00 0.00 21 1006.7
20200403231504 82 157 3.0 8.0 0.00 0.00 0.00 21 1006.8
20200403231005 83 202 2.0 8.0 0.00 0.00 0.00 20 1006.8
20200403230504 83 258 3.0 7.0 0.00 0.00 0.00 22 1006.9
20200403230004 82 264 2.0 8.0 0.00 0.00 0.00 22 1006.9
20200403225504 83 258 2.0 9.0 0.00 0.00 0.00 22 1006.9
20200403225004 82 252 3.0 9.0 0.00 0.00 0.00 21 1007.0
20200403224503 82 252 5.0 11.0 0.00 0.00 0.00 21 1007.0
20200403224004 83 241 6.0 13.0 0.00 0.00 0.00 21 1007.1
20200403223504 83 225 4.0 13.0 0.00 0.00 0.00 19 1007.0
20200403223004 83 177 2.0 11.0 0.00 0.00 0.00 20 1007.2
20200403222504 83 133 1.0 5.0 0.00 0.00 0.00 20 1007.2
20200403222004 82 163 1.0 7.0 0.00 0.00 0.00 21 1007.3
20200403221505 83 178 1.0 7.0 0.00 0.00 0.00 19 1007.4
20200403221004 83 208 1.0 5.0 0.00 0.00 0.00 20 1007.4
20200403220504 82 207 2.0 6.0 0.00 0.00 0.00 21 1007.6
20200403220004 82 176 2.0 7.0 0.00 0.00 0.00 21 1007.7
20200403215504 83 124 3.0 8.0 0.00 0.00 0.00 19 1007.6
20200403215004 83 150 3.0 8.0 0.00 0.00 0.00 21 1007.6
20200403214504 82 207 2.0 8.0 0.00 0.00 0.00 21 1007.7
20200403214004 82 204 2.0 8.0 0.00 0.00 0.00 24 1007.8
20200403213504 82 201 2.0 7.0 0.00 0.00 0.00 22 1008.0
20200403213004 82 203 2.0 7.0 0.00 0.00 0.00 23 1008.1
20200403212504 82 206 2.0 7.0 0.00 0.00 0.00 22 1008.1
20200403212005 82 207 2.0 7.0 0.00 0.00 0.00 22 1008.2
20200403211504 82 210 2.0 7.0 0.00 0.00 0.00 22 1008.2
20200403211004 82 212 1.0 7.0 0.00 0.00 0.00 23 1008.3
20200403210504 82 220 1.0 7.0 0.00 0.00 0.00 25 1008.4
20200403210004 82 225 2.0 7.0 0.00 0.00 0.00 22 1008.5
20200403205504 82 230 2.0 9.0 0.00 0.00 0.00 23 1008.6
20200403205004 82 222 3.0 10.0 0.00 0.00 0.00 22 1008.6
20200403204504 82 209 3.0 10.0 0.00 0.00 0.00 22 1008.7
20200403204004 82 197 2.0 7.0 0.00 0.00 0.00 22 1008.8
20200403203504 82 197 1.0 4.0 0.00 0.00 0.00 21 1008.8
20200403203004 82 199 2.0 6.0 0.00 0.00 0.00 22 1008.9
20200403202504 82 204 2.0 6.0 0.00 0.00 0.00 22 1008.9
20200403202004 82 209 1.0 5.0 0.00 0.00 0.00 22 1009.1
20200403201504 83 212 1.0 6.0 0.00 0.00 0.00 21 1009.1
20200403201004 82 217 1.0 6.0 0.00 0.00 0.00 23 1009.2
20200403200504 80 212 2.0 7.0 0.00 0.00 0.00 22 1009.2
20200403200005 81 198 3.0 8.0 0.00 0.00 0.00 22 1009.3
20200403195504 82 145 2.0 8.0 0.00 0.00 0.00 22 1009.5
20200403195004 82 115 2.0 8.0 0.00 0.00 0.00 22 1009.6
20200403194504 82 109 1.0 7.0 0.00 0.00 0.00 21 1009.7
20200403194004 81 107 2.0 7.0 0.00 0.00 0.00 22 1009.7
20200403193503 82 100 3.0 8.0 0.00 0.00 0.00 22 1009.9
20200403193004 81 91 1.0 8.0 0.00 0.00 0.00 22 1009.8
20200403192504 80 258 1.0 7.0 0.00 0.00 0.00 23 1010.0
20200403192004 80 159 1.0 7.0 0.00 0.00 0.00 21 1010.1
20200403191504 80 132 1.0 6.0 0.00 0.00 0.00 23 1010.2
20200403191004 80 132 2.0 6.0 0.00 0.00 0.00 23 1010.3
20200403190503 80 122 3.0 8.0 0.00 0.00 0.00 21 1010.3
20200403190004 81 118 3.0 8.0 0.00 0.00 0.00 21 1010.4
20200403185504 80 119 2.0 8.0 0.00 0.00 0.00 24 1010.5
20200403185004 80 120 2.0 8.0 0.00 0.00 0.00 21 1010.5
20200403184504 80 103 2.0 8.0 0.00 0.00 0.00 22 1010.6
20200403184003 80 99 2.0 7.0 0.00 0.00 0.00 25 1010.7
20200403183504 80 112 2.0 5.0 0.00 0.00 0.00 24 1010.8
20200403183003 79 114 1.0 4.0 0.00 0.00 0.00 27 1010.8
20200403182504 79 115 2.0 7.0 0.00 0.00 0.00 25 1010.9
20200403182003 79 115 2.0 7.0 0.00 0.00 0.00 23 1010.9
20200403181505 78 117 1.0 7.0 0.00 0.00 0.00 24 1011.0
20200403181004 78 118 2.0 8.0 0.00 0.00 0.00 25 1011.0
20200403180504 78 118 2.0 8.0 0.00 0.00 0.00 23 1011.1
20200403180004 78 116 1.0 8.0 0.00 0.00 0.00 25 1011.3
20200403175504 78 116 2.0 5.0 0.00 0.00 0.00 27 1011.3
20200403175004 76 115 3.0 9.0 0.00 0.00 0.00 26 1011.3
20200403174504 77 123 4.0 10.0 0.00 0.00 0.00 26 1011.4
20200403174004 76 122 4.0 10.0 0.00 0.00 0.00 26 1011.5
20200403173503 76 113 3.0 9.0 0.00 0.00 0.00 27 1011.4
20200403173004 76 113 3.0 8.0 0.00 0.00 0.00 27 1011.5
20200403172504 76 114 2.0 7.0 0.00 0.00 0.00 29 1011.5
20200403172004 75 114 3.0 8.0 0.00 0.00 0.00 27 1011.5
20200403171504 75 114 3.0 8.0 0.00 0.00 0.00 28 1011.7
20200403171003 75 115 3.0 11.0 0.00 0.00 0.00 28 1011.6
20200403170504 74 114 4.0 11.0 0.00 0.00 0.00 27 1011.7
20200403170004 74 114 3.0 8.0 0.00 0.00 0.00 28 1011.7
20200403165504 74 114 2.0 8.0 0.00 0.00 0.00 28 1011.7
20200403165004 74 116 3.0 8.0 0.00 0.00 0.00 30 1011.7
20200403164504 73 116 3.0 9.0 0.00 0.00 0.00 28 1011.7
20200403164004 73 118 2.0 9.0 0.00 0.00 0.00 30 1011.7
20200403163504 72 121 1.0 8.0 0.00 0.00 0.00 32 1011.7
20200403163004 72 121 1.0 8.0 0.00 0.00 0.00 32 1011.7
20200403162503 72 124 2.0 8.0 0.00 0.00 0.00 34 1011.7
20200403162004 71 125 3.0 8.0 0.00 0.00 0.00 33 1011.7
20200403161504 70 120 3.0 8.0 0.00 0.00 0.00 32 1011.7
20200403161004 70 112 3.0 8.0 0.00 0.00 0.00 33 1011.6
20200403160504 69 101 2.0 7.0 0.00 0.00 0.00 34 1011.6
20200403160004 69 99 2.0 7.0 0.00 0.00 0.00 36 1011.5
20200403155503 67 103 2.0 7.0 0.00 0.00 0.00 39 1011.6
20200403155004 66 124 1.0 7.0 0.00 0.00 0.00 41 1011.6
20200403154504 64 189 0.0 4.0 0.00 0.00 0.00 45 1011.6
20200403154004 62 190 1.0 4.0 0.00 0.00 0.00 46 1011.4
20200403153504 61 190 1.0 4.0 0.00 0.00 0.00 46 1011.4
20200403153004 59 192 1.0 4.0 0.00 0.00 0.00 50 1011.4
20200403152504 58 193 0.0 4.0 0.00 0.00 0.00 51 1011.4
20200403152005 57 193 0.0 2.0 0.00 0.00 0.00 54 1011.5
20200403151503 56 193 0.0 1.0 0.00 0.00 0.00 57 1011.4
20200403151004 55 0 0.0 0.0 0.00 0.00 0.00 60 1011.4
20200403150504 55 193 0.0 1.0 0.00 0.00 0.00 63 1011.4
20200403150004 54 193 0.0 1.0 0.00 0.00 0.00 66 1011.5
20200403145503 53 0 0.0 0.0 0.00 0.00 0.00 68 1011.5
20200403145004 53 0 0.0 0.0 0.00 0.00 0.00 70 1011.4
20200403144503 52 0 0.0 0.0 0.00 0.00 0.00 70 1011.3
20200403144004 52 0 0.0 0.0 0.00 0.00 0.00 71 1011.3
20200403143503 52 0 0.0 0.0 0.00 0.00 0.00 71 1011.4
20200403143004 51 0 0.0 0.0 0.00 0.00 0.00 71 1011.3
20200403142504 51 213 0.0 2.0 0.00 0.00 0.00 71 1011.3
20200403142004 51 214 0.0 2.0 0.00 0.00 0.00 71 1011.3
20200403141503 50 213 0.0 2.0 0.00 0.00 0.00 71 1011.3
20200403141003 50 213 0.0 1.0 0.00 0.00 0.00 70 1011.3
20200403140504 50 0 0.0 0.0 0.00 0.00 0.00 70 1011.3
20200403140004 50 0 0.0 0.0 0.00 0.00 0.00 70 1011.2
20200403135503 50 0 0.0 0.0 0.00 0.00 0.00 69 1011.1
20200403135003 50 0 0.0 0.0 0.00 0.00 0.00 68 1011.0
20200403134504 50 0 0.0 0.0 0.00 0.00 0.00 68 1011.0
20200403134003 50 0 0.0 0.0 0.00 0.00 0.00 67 1011.0
20200403133504 50 0 0.0 0.0 0.00 0.00 0.00 67 1010.9
20200403133003 50 227 0.0 1.0 0.00 0.00 0.00 67 1010.9
20200403132504 50 227 0.0 1.0 0.00 0.00 0.00 67 1010.8
20200403132003 50 0 0.0 0.0 0.00 0.00 0.00 67 1010.8
20200403131504 51 0 0.0 0.0 0.00 0.00 0.00 67 1010.7
20200403131003 51 0 0.0 0.0 0.00 0.00 0.00 66 1010.7
20200403130503 51 0 0.0 0.0 0.00 0.00 0.00 66 1010.7
20200403130004 51 0 0.0 0.0 0.00 0.00 0.00 66 1010.6
20200403125503 51 0 0.0 0.0 0.00 0.00 0.00 66 1010.6
20200403125004 51 0 0.0 0.0 0.00 0.00 0.00 66 1010.5
20200403124503 51 0 0.0 0.0 0.00 0.00 0.00 65 1010.4
20200403124004 51 0 0.0 0.0 0.00 0.00 0.00 65 1010.4
20200403123504 51 0 0.0 0.0 0.00 0.00 0.00 65 1010.3
20200403123004 51 0 0.0 0.0 0.00 0.00 0.00 65 1010.2
20200403122503 52 0 0.0 0.0 0.00 0.00 0.00 65 1010.3
20200403122003 52 231 0.0 1.0 0.00 0.00 0.00 65 1010.2
20200403121504 52 231 0.0 1.0 0.00 0.00 0.00 65 1010.1
20200403121004 52 0 0.0 0.0 0.00 0.00 0.00 66 1010.1
20200403120504 52 0 0.0 0.0 0.00 0.00 0.00 66 1010.0
20200403120004 52 0 0.0 0.0 0.00 0.00 0.00 66 1010.0
20200403115503 52 0 0.0 0.0 0.00 0.00 0.00 66 1010.0
20200403115003 52 231 0.0 1.0 0.00 0.00 0.00 67 1010.0
20200403114504 52 231 0.0 1.0 0.00 0.00 0.00 67 1010.0
20200403114003 52 231 0.0 1.0 0.00 0.00 0.00 66 1010.0
20200403113504 52 0 0.0 0.0 0.00 0.00 0.00 66 1009.9
20200403113004 52 0 0.0 0.0 0.00 0.00 0.00 66 1009.9
20200403112504 52 0 0.0 0.0 0.00 0.00 0.00 65 1009.9
20200403112004 53 0 0.0 0.0 0.00 0.00 0.00 65 1009.9
20200403111504 53 0 0.0 0.0 0.00 0.00 0.00 65 1009.9
20200403111004 53 0 0.0 0.0 0.00 0.00 0.00 65 1009.9
20200403110503 53 0 0.0 0.0 0.00 0.00 0.00 65 1010.0
20200403110003 53 0 0.0 0.0 0.00 0.00 0.00 65 1010.0
20200403105504 53 0 0.0 0.0 0.00 0.00 0.00 64 1010.1
20200403105003 53 0 0.0 0.0 0.00 0.00 0.00 63 1010.2
20200403104504 53 0 0.0 0.0 0.00 0.00 0.00 63 1010.2
20200403104003 54 0 0.0 0.0 0.00 0.00 0.00 63 1010.2
20200403103504 54 0 0.0 0.0 0.00 0.00 0.00 63 1010.3
20200403103003 54 0 0.0 0.0 0.00 0.00 0.00 63 1010.3
20200403102504 54 0 0.0 0.0 0.00 0.00 0.00 63 1010.3
20200403102003 54 0 0.0 0.0 0.00 0.00 0.00 63 1010.2
20200403101504 54 0 0.0 0.0 0.00 0.00 0.00 63 1010.2
20200403101003 54 0 0.0 0.0 0.00 0.00 0.00 63 1010.2
20200403100504 55 0 0.0 0.0 0.00 0.00 0.00 63 1010.3
20200403100004 55 0 0.0 0.0 0.00 0.00 0.00 63 1010.2
20200403095505 55 0 0.0 0.0 0.00 0.00 0.00 63 1010.2
20200403095004 55 0 0.0 0.0 0.00 0.00 0.00 62 1010.2
20200403094505 55 0 0.0 0.0 0.00 0.00 0.00 62 1010.2
20200403094004 55 0 0.0 0.0 0.00 0.00 0.00 62 1010.2
20200403093505 56 0 0.0 0.0 0.00 0.00 0.00 61 1010.2
20200403093005 56 0 0.0 0.0 0.00 0.00 0.00 60 1010.2
20200403092505 56 0 0.0 0.0 0.00 0.00 0.00 59 1010.2
20200403092004 56 0 0.0 0.0 0.00 0.00 0.00 59 1010.2
20200403091512 56 0 0.0 0.0 0.00 0.00 0.00 59 1010.2
20200403091004 56 0 0.0 0.0 0.00 0.00 0.00 59 1010.2
20200403090505 56 0 0.0 0.0 0.00 0.00 0.00 59 1010.2
20200403090004 57 0 0.0 0.0 0.00 0.00 0.00 59 1010.2
20200403085505 57 0 0.0 0.0 0.00 0.00 0.00 59 1010.2
20200403085005 57 0 0.0 0.0 0.00 0.00 0.00 59 1010.2
20200403084505 57 0 0.0 0.0 0.00 0.00 0.00 58 1010.1
20200403084004 58 0 0.0 0.0 0.00 0.00 0.00 56 1010.1
20200403083505 58 0 0.0 0.0 0.00 0.00 0.00 56 1010.2
20200403083005 58 0 0.0 0.0 0.00 0.00 0.00 56 1010.1
20200403082504 58 0 0.0 0.0 0.00 0.00 0.00 55 1010.2
20200403082004 58 0 0.0 0.0 0.00 0.00 0.00 55 1010.1
20200403081505 58 0 0.0 0.0 0.00 0.00 0.00 54 1010.1
20200403081004 59 0 0.0 0.0 0.00 0.00 0.00 53 1010.1
20200403080505 59 0 0.0 0.0 0.00 0.00 0.00 53 1010.1
20200403080004 59 0 0.0 0.0 0.00 0.00 0.00 52 1010.1
20200403075505 59 0 0.0 0.0 0.00 0.00 0.00 51 1010.1
20200403075005 60 0 0.0 0.0 0.00 0.00 0.00 50 1010.2
20200403074505 60 0 0.0 0.0 0.00 0.00 0.00 50 1010.2
20200403074005 60 0 0.0 0.0 0.00 0.00 0.00 49 1010.2
20200403073504 60 0 0.0 0.0 0.00 0.00 0.00 49 1010.2
20200403073005 60 0 0.0 0.0 0.00 0.00 0.00 48 1010.2
20200403072505 61 0 0.0 0.0 0.00 0.00 0.00 47 1010.2
20200403072005 61 0 0.0 0.0 0.00 0.00 0.00 48 1010.3
20200403071506 61 0 0.0 0.0 0.00 0.00 0.00 47 1010.3
20200403071004 61 0 0.0 0.0 0.00 0.00 0.00 46 1010.3
20200403070504 62 0 0.0 0.0 0.00 0.00 0.00 46 1010.3
20200403070005 62 0 0.0 0.0 0.00 0.00 0.00 45 1010.3
20200403065505 62 0 0.0 0.0 0.00 0.00 0.00 44 1010.3
20200403065005 62 0 0.0 0.0 0.00 0.00 0.00 43 1010.3
20200403064505 63 0 0.0 0.0 0.00 0.00 0.00 43 1010.2
20200403064004 63 0 0.0 0.0 0.00 0.00 0.00 43 1010.2
20200403063505 63 0 0.0 0.0 0.00 0.00 0.00 43 1010.2
20200403063004 64 0 0.0 0.0 0.00 0.00 0.00 42 1010.3
20200403062504 64 0 0.0 0.0 0.00 0.00 0.00 41 1010.2
20200403062004 64 0 0.0 0.0 0.00 0.00 0.00 40 1010.2
20200403061505 64 0 0.0 0.0 0.00 0.00 0.00 40 1010.1
20200403061004 65 0 0.0 0.0 0.00 0.00 0.00 39 1010.1
20200403060505 65 0 0.0 0.0 0.00 0.00 0.00 38 1010.1
20200403060004 65 0 0.0 0.0 0.00 0.00 0.00 37 1010.1
20200403055505 66 231 0.0 1.0 0.00 0.00 0.00 37 1010.2
20200403055004 66 231 0.0 1.0 0.00 0.00 0.00 37 1010.1
20200403054505 66 230 0.0 2.0 0.00 0.00 0.00 36 1010.1
20200403054004 66 231 0.0 2.0 0.00 0.00 0.00 35 1010.0
20200403053504 67 230 0.0 2.0 0.00 0.00 0.00 35 1010.0
20200403053005 67 230 0.0 2.0 0.00 0.00 0.00 34 1010.0
20200403052505 67 231 0.0 1.0 0.00 0.00 0.00 34 1009.9
20200403052004 68 0 0.0 0.0 0.00 0.00 0.00 34 1010.0
20200403051504 68 0 0.0 0.0 0.00 0.00 0.00 33 1009.9
20200403051005 68 0 0.0 0.0 0.00 0.00 0.00 32 1009.8
20200403050504 69 0 0.0 0.0 0.00 0.00 0.00 31 1009.8
20200403050005 69 229 0.0 3.0 0.00 0.00 0.00 31 1009.8
20200403045504 69 230 0.0 3.0 0.00 0.00 0.00 31 1009.8
20200403045005 69 230 0.0 2.0 0.00 0.00 0.00 30 1009.8
20200403044504 70 229 0.0 2.0 0.00 0.00 0.00 29 1009.7
20200403044005 70 230 0.0 1.0 0.00 0.00 0.00 29 1009.6
20200403043504 70 229 0.0 1.0 0.00 0.00 0.00 29 1009.6
20200403043004 70 229 0.0 1.0 0.00 0.00 0.00 29 1009.6
20200403042504 70 230 0.0 3.0 0.00 0.00 0.00 28 1009.6
20200403042004 70 229 0.0 3.0 0.00 0.00 0.00 28 1009.7
20200403041504 71 230 1.0 3.0 0.00 0.00 0.00 28 1009.7
20200403041004 71 229 1.0 3.0 0.00 0.00 0.00 27 1009.7
20200403040505 71 230 1.0 3.0 0.00 0.00 0.00 28 1009.6
20200403040005 71 230 1.0 4.0 0.00 0.00 0.00 27 1009.6
20200403035505 71 230 1.0 4.0 0.00 0.00 0.00 27 1009.5
20200403035005 72 230 0.0 4.0 0.00 0.00 0.00 26 1009.4
20200403034504 72 229 0.0 4.0 0.00 0.00 0.00 26 1009.4
20200403034005 72 230 0.0 2.0 0.00 0.00 0.00 26 1009.3
20200403033504 72 229 0.0 1.0 0.00 0.00 0.00 26 1009.2
20200403033005 72 230 0.0 1.0 0.00 0.00 0.00 26 1009.2
20200403032504 73 230 0.0 1.0 0.00 0.00 0.00 26 1009.2
20200403032005 73 230 0.0 4.0 0.00 0.00 0.00 25 1009.0
20200403031504 73 229 1.0 5.0 0.00 0.00 0.00 25 1008.9
20200403031004 73 229 0.0 5.0 0.00 0.00 0.00 24 1008.9
20200403030505 73 230 0.0 2.0 0.00 0.00 0.00 24 1008.9
20200403030004 74 229 0.0 3.0 0.00 0.00 0.00 25 1008.9
20200403025505 74 229 0.0 3.0 0.00 0.00 0.00 25 1008.7
20200403025004 74 229 0.0 1.0 0.00 0.00 0.00 24 1008.7
20200403024505 74 0 0.0 0.0 0.00 0.00 0.00 24 1008.6
20200403024004 75 0 0.0 0.0 0.00 0.00 0.00 24 1008.6
20200403023505 75 230 1.0 5.0 0.00 0.00 0.00 24 1008.5
20200403023005 75 229 1.0 5.0 0.00 0.00 0.00 23 1008.5
20200403022504 75 229 1.0 4.0 0.00 0.00 0.00 24 1008.5
20200403022005 75 229 1.0 4.0 0.00 0.00 0.00 23 1008.4
20200403021504 75 230 2.0 8.0 0.00 0.00 0.00 24 1008.3
20200403021004 76 230 2.0 8.0 0.00 0.00 0.00 24 1008.3
20200403020504 76 230 2.0 6.0 0.00 0.00 0.00 24 1008.3
20200403020005 76 231 2.0 7.0 0.00 0.00 0.00 24 1008.3
20200403015504 76 235 2.0 7.0 0.00 0.00 0.00 24 1008.3
20200403015004 76 236 2.0 7.0 0.00 0.00 0.00 24 1008.3
20200403014504 77 224 3.0 8.0 0.00 0.00 0.00 25 1008.2
20200403014004 77 220 3.0 8.0 0.00 0.00 0.00 24 1008.2
20200403013504 77 223 3.0 9.0 0.00 0.00 0.00 24 1008.3
20200403013004 77 221 3.0 9.0 0.00 0.00 0.00 24 1008.3
20200403012504 78 217 2.0 7.0 0.00 0.00 0.00 24 1008.2
20200403012004 78 232 2.0 8.0 0.00 0.00 0.00 23 1008.2
20200403011504 78 240 3.0 8.0 0.00 0.00 0.00 23 1008.2
20200403011004 78 231 4.0 9.0 0.00 0.00 0.00 23 1008.2
20200403010504 78 222 4.0 9.0 0.00 0.00 0.00 23 1008.2
20200403010005 78 226 3.0 11.0 0.00 0.00 0.00 23 1008.2
20200403005504 79 235 3.0 11.0 0.00 0.00 0.00 23 1008.2
20200403005004 79 229 2.0 8.0 0.00 0.00 0.00 23 1008.2
20200403004504 79 214 3.0 10.0 0.00 0.00 0.00 23 1008.3
20200403004004 79 214 4.0 10.0 0.00 0.00 0.00 23 1008.2
20200403003504 79 223 5.0 10.0 0.00 0.00 0.00 23 1008.2
20200403003004 79 223 4.0 10.0 0.00 0.00 0.00 23 1008.3